Wednesday, January 28, 2015
12:05 UTC
  |  Log In   |  Register Free
Airport Search:

Henry Post Aaf (Fort Sill) Airport
(KFSI)

Henry Post Aaf (Fort Sill) Airport Diagram
No Airport Diagram Available

FAA data valid effective January 08, 2015 - March 05, 2015 (unless otherwise noted).

 
 
 
 
 
 
 
 
 
 
 
 
 
 

Current Aviation Weather for Henry Post Aaf (Fort Sill) Airport (KFSI)

The most recent METAR observation for KFSI was updated at: 1111
METAR Summary (Translated METAR)
KFSI
281058Z AUTO 18003KT 10SM CLR 06/03 A3002 RMK AO2 SLP163 T00600030
KLAW
281053Z AUTO 00000KT 10SM CLR 02/01 A3003 RMK AO2 SLP169 T00220006
(5.0 nm SW from KFSI)
KDUC
281055Z AUTO 00000KT 10SM CLR 08/04 A3004 RMK AO2
(24.4 nm SE from KFSI)
TAF Summary (Translated TAF)
KFSI
2803/2904 19009KT 9999 SCT250 QNH3005INS BECMG 2816/2817 20012G18KT 9999 SCT250 QNH2995INS BECMG 2900/2901 20006KT 9999 SCT250 QNH2998INS TX27/2821Z TN06/2812Z AMD 280335 LAST NO AMDS AFT 2804 NEXT 2814
KLAW
(5.0 nm SW from KFSI)
280522Z 2806/2906 18007KT P6SM FEW250 FM281600 22012G18KT P6SM SCT080 FM282300 28008KT P6SM SCT250
  Airport Weather Conditions for KFSI

 Current Weather at FSI
46° F
Fair
North winds at 0.0 mph
FSI NOAA Radar

Pressure: 30.02 in
Humidity: 75%
Wind: Calm
Dew Point: 37.9°F
Visibility: 10.00 mi


Airport Weather Forecast for KFSI

Translated METAR and TAF for KFSI
Translated METAR for KFSI (1206 UTC 28 January 2015)
found at http://aviationweather.gov/adds/metars/
 
METAR text: KFSI 281158Z AUTO 17002KT 10SM CLR 05/03 A3001 RMK AO2 SLP161 T00480027 10105 20046 57007
Conditions at: KFSI (FORT SILL , OK, US) observed 1158 UTC 28 January 2015
Temperature: 4.8°C (41°F)
Dewpoint: 2.7°C (37°F) [RH = 86%]
Pressure (altimeter): 30.01 inches Hg (1016.3 mb)
[Sea-level pressure: 1016.1 mb]
Winds: from the S (170 degrees) at 2 MPH (2 knots; 1.0 m/s)
Visibility: 10 or more miles (16+ km)
Ceiling: at least 12,000 feet AGL
Clouds: sky clear below 12,000 feet AGL
Weather: automated observation with no human augmentation;
there may or may not be significant weather present at this time
Translated TAF for KFSI
Forecast for: KFSI (FORT SILL , OK, US)
TAF Text: TAF AMD KFSI 2803/2904 19009KT 9999 SCT250 QNH3005INS
Forecast period: 0300 to 1600 UTC 28 January 2015
Forecast type: FROM: standard forecast or significant change
Winds: from the S (190 degrees) at 10 MPH (9 knots; 4.7 m/s)
Visibility: 6 or more miles (10+ km)
Clouds: scattered clouds at 25000 feet AGL
Weather: no significant weather forecast for this period
TAF Text: BECMG 2816/2817 20012G18KT 9999 SCT250 QNH2995INS
Forecast period: 1600 UTC 28 January 2015 to 0000 UTC 29 January 2015
Forecast type: BECOMING: Conditions expected to become as follows by 1700 UTC 28 January 2015
Winds: from the SSW (200 degrees) at 14 MPH (12 knots; 6.2 m/s)
gusting to 21 MPH (18 knots; 9.4 m/s)
Visibility: 6 or more miles (10+ km)
Clouds: scattered clouds at 25000 feet AGL
Weather: no significant weather forecast for this period
TAF Text: BECMG 2900/2901 20006KT 9999 SCT250 QNH2998INS TX27/2821Z TN06/2812Z AMD 280335 LAST NO AMDS AFT 2804 NEXT 2814
Forecast period: 0000 to 0400 UTC 29 January 2015
Forecast type: BECOMING: Conditions expected to become as follows by 0100 UTC 29 January 2015
Winds: from the SSW (200 degrees) at 7 MPH (6 knots; 3.1 m/s)
Visibility: 6 or more miles (10+ km)
Clouds: scattered clouds at 25000 feet AGL
Weather: no significant weather forecast for this period

Find All Airport Services Find A Hotel Find A Rental Car Find A Golf Course Find A Restaurant $100 Hamburger



FBO's on the Field
FBO Company Facility Photos Services Transportation Aviation Fuel Prices: Prices include tax
Catering Weather Repair Courtesy Rental Type 100LL JetA JetA+ MOGAS 8087
 
Add another FBO Facility Photos Catering Weather Repair Courtesy Rental Type 100LL JetA JetA+ MOGAS 8087
Services Transportation Aviation Fuel Prices: Prices include tax
There are no FBO's currently reporting fuel at FSI. List your FBO now


model-print
model-print
model-print
model-print